sensor_id;sensor_type;location;lat;lon;timestamp;temperature;humidity
6357;DHT22;3211;53.452;-2.264;2024-03-07T00:00:03;7.70;99.90
6357;DHT22;3211;53.452;-2.264;2024-03-07T00:02:53;7.70;99.90
6357;DHT22;3211;53.452;-2.264;2024-03-07T00:05:40;7.70;99.90
6357;DHT22;3211;53.452;-2.264;2024-03-07T00:08:27;7.80;99.90
6357;DHT22;3211;53.452;-2.264;2024-03-07T00:11:16;7.80;99.90
6357;DHT22;3211;53.452;-2.264;2024-03-07T00:14:05;7.70;99.90
6357;DHT22;3211;53.452;-2.264;2024-03-07T00:16:52;7.70;99.90
6357;DHT22;3211;53.452;-2.264;2024-03-07T00:19:40;7.70;99.90
6357;DHT22;3211;53.452;-2.264;2024-03-07T00:22:27;7.60;99.90
6357;DHT22;3211;53.452;-2.264;2024-03-07T00:25:15;7.70;99.90
6357;DHT22;3211;53.452;-2.264;2024-03-07T00:28:05;7.80;99.90
6357;DHT22;3211;53.452;-2.264;2024-03-07T00:30:54;7.70;99.90
6357;DHT22;3211;53.452;-2.264;2024-03-07T00:33:41;7.60;99.90
6357;DHT22;3211;53.452;-2.264;2024-03-07T00:36:28;7.60;99.90
6357;DHT22;3211;53.452;-2.264;2024-03-07T00:39:15;7.70;99.90
6357;DHT22;3211;53.452;-2.264;2024-03-07T00:42:03;7.70;99.90
6357;DHT22;3211;53.452;-2.264;2024-03-07T00:44:50;7.60;99.90
6357;DHT22;3211;53.452;-2.264;2024-03-07T00:47:39;7.50;99.90
6357;DHT22;3211;53.452;-2.264;2024-03-07T00:50:26;7.60;99.90
6357;DHT22;3211;53.452;-2.264;2024-03-07T00:53:13;7.70;99.90
6357;DHT22;3211;53.452;-2.264;2024-03-07T00:56:01;7.60;99.90
6357;DHT22;3211;53.452;-2.264;2024-03-07T00:58:48;7.70;99.90
6357;DHT22;3211;53.452;-2.264;2024-03-07T01:01:36;7.60;99.90
6357;DHT22;3211;53.452;-2.264;2024-03-07T01:04:25;7.60;99.90
6357;DHT22;3211;53.452;-2.264;2024-03-07T01:07:16;7.60;99.90
6357;DHT22;3211;53.452;-2.264;2024-03-07T01:10:05;7.60;99.90
6357;DHT22;3211;53.452;-2.264;2024-03-07T01:12:55;7.60;99.90
6357;DHT22;3211;53.452;-2.264;2024-03-07T01:15:46;7.50;99.90
6357;DHT22;3211;53.452;-2.264;2024-03-07T01:18:34;7.60;99.90
6357;DHT22;3211;53.452;-2.264;2024-03-07T01:21:23;7.60;99.90
6357;DHT22;3211;53.452;-2.264;2024-03-07T01:24:11;7.50;99.90
6357;DHT22;3211;53.452;-2.264;2024-03-07T01:26:58;7.50;99.90
6357;DHT22;3211;53.452;-2.264;2024-03-07T01:29:46;7.40;99.90
6357;DHT22;3211;53.452;-2.264;2024-03-07T01:32:34;7.40;99.90
6357;DHT22;3211;53.452;-2.264;2024-03-07T01:35:21;7.50;99.90
6357;DHT22;3211;53.452;-2.264;2024-03-07T01:38:10;7.50;99.90
6357;DHT22;3211;53.452;-2.264;2024-03-07T01:40:59;7.40;99.90
6357;DHT22;3211;53.452;-2.264;2024-03-07T01:43:46;7.40;99.90
6357;DHT22;3211;53.452;-2.264;2024-03-07T01:46:33;7.50;99.90
6357;DHT22;3211;53.452;-2.264;2024-03-07T01:49:21;7.40;99.90
6357;DHT22;3211;53.452;-2.264;2024-03-07T01:52:09;7.30;99.90
6357;DHT22;3211;53.452;-2.264;2024-03-07T01:54:59;7.20;99.90
6357;DHT22;3211;53.452;-2.264;2024-03-07T01:57:49;7.30;99.90
6357;DHT22;3211;53.452;-2.264;2024-03-07T02:00:36;7.20;99.90
6357;DHT22;3211;53.452;-2.264;2024-03-07T02:03:23;7.20;99.90
6357;DHT22;3211;53.452;-2.264;2024-03-07T02:06:11;7.30;99.90
6357;DHT22;3211;53.452;-2.264;2024-03-07T02:08:58;7.20;99.90
6357;DHT22;3211;53.452;-2.264;2024-03-07T02:11:49;7.20;99.90
6357;DHT22;3211;53.452;-2.264;2024-03-07T02:14:36;7.20;99.90
6357;DHT22;3211;53.452;-2.264;2024-03-07T02:17:24;7.20;99.90
6357;DHT22;3211;53.452;-2.264;2024-03-07T02:20:11;7.20;99.90
6357;DHT22;3211;53.452;-2.264;2024-03-07T02:23:00;7.10;99.90
6357;DHT22;3211;53.452;-2.264;2024-03-07T02:25:48;7.10;99.90
6357;DHT22;3211;53.452;-2.264;2024-03-07T02:28:35;7.00;99.90
6357;DHT22;3211;53.452;-2.264;2024-03-07T02:31:22;7.10;99.90
6357;DHT22;3211;53.452;-2.264;2024-03-07T02:34:20;7.00;99.90
6357;DHT22;3211;53.452;-2.264;2024-03-07T02:37:08;7.00;99.90
6357;DHT22;3211;53.452;-2.264;2024-03-07T02:39:57;7.00;99.90
6357;DHT22;3211;53.452;-2.264;2024-03-07T02:42:44;6.90;99.90
6357;DHT22;3211;53.452;-2.264;2024-03-07T02:45:32;6.90;99.90
6357;DHT22;3211;53.452;-2.264;2024-03-07T02:48:19;6.90;99.90
6357;DHT22;3211;53.452;-2.264;2024-03-07T02:51:06;6.90;99.90
6357;DHT22;3211;53.452;-2.264;2024-03-07T02:53:53;6.80;99.90
6357;DHT22;3211;53.452;-2.264;2024-03-07T02:56:42;6.80;99.90
6357;DHT22;3211;53.452;-2.264;2024-03-07T02:59:31;6.90;99.90
6357;DHT22;3211;53.452;-2.264;2024-03-07T03:02:18;6.90;99.90
6357;DHT22;3211;53.452;-2.264;2024-03-07T03:05:06;6.80;99.90
6357;DHT22;3211;53.452;-2.264;2024-03-07T03:07:55;6.70;99.90
6357;DHT22;3211;53.452;-2.264;2024-03-07T03:10:43;6.70;99.90
6357;DHT22;3211;53.452;-2.264;2024-03-07T03:13:31;6.60;99.90
6357;DHT22;3211;53.452;-2.264;2024-03-07T03:16:19;6.50;99.90
6357;DHT22;3211;53.452;-2.264;2024-03-07T03:19:07;6.50;99.90
6357;DHT22;3211;53.452;-2.264;2024-03-07T03:21:54;6.40;99.90
6357;DHT22;3211;53.452;-2.264;2024-03-07T03:24:42;6.50;99.90
6357;DHT22;3211;53.452;-2.264;2024-03-07T03:27:29;6.60;99.90
6357;DHT22;3211;53.452;-2.264;2024-03-07T03:30:18;6.70;99.90
6357;DHT22;3211;53.452;-2.264;2024-03-07T03:33:05;6.70;99.90
6357;DHT22;3211;53.452;-2.264;2024-03-07T03:35:52;6.70;99.90
6357;DHT22;3211;53.452;-2.264;2024-03-07T03:38:41;6.70;99.90
6357;DHT22;3211;53.452;-2.264;2024-03-07T03:41:28;6.70;99.90
6357;DHT22;3211;53.452;-2.264;2024-03-07T03:44:16;6.70;99.90
6357;DHT22;3211;53.452;-2.264;2024-03-07T03:47:05;6.70;99.90
6357;DHT22;3211;53.452;-2.264;2024-03-07T03:49:52;6.60;99.90
6357;DHT22;3211;53.452;-2.264;2024-03-07T03:52:40;6.60;99.90
6357;DHT22;3211;53.452;-2.264;2024-03-07T03:55:27;6.70;99.90
6357;DHT22;3211;53.452;-2.264;2024-03-07T03:58:14;6.60;99.90
6357;DHT22;3211;53.452;-2.264;2024-03-07T04:01:02;6.60;99.90
6357;DHT22;3211;53.452;-2.264;2024-03-07T04:03:52;6.60;99.90
6357;DHT22;3211;53.452;-2.264;2024-03-07T04:06:39;6.70;99.90
6357;DHT22;3211;53.452;-2.264;2024-03-07T04:09:26;6.70;99.90
6357;DHT22;3211;53.452;-2.264;2024-03-07T04:12:15;6.70;99.90
6357;DHT22;3211;53.452;-2.264;2024-03-07T04:15:03;6.70;99.90
6357;DHT22;3211;53.452;-2.264;2024-03-07T04:17:50;6.70;99.90
6357;DHT22;3211;53.452;-2.264;2024-03-07T04:20:39;6.60;99.90
6357;DHT22;3211;53.452;-2.264;2024-03-07T04:23:26;6.60;99.90
6357;DHT22;3211;53.452;-2.264;2024-03-07T04:26:13;6.70;99.90
6357;DHT22;3211;53.452;-2.264;2024-03-07T04:29:01;6.60;99.90
6357;DHT22;3211;53.452;-2.264;2024-03-07T04:31:48;6.60;99.90
6357;DHT22;3211;53.452;-2.264;2024-03-07T04:34:36;6.60;99.90
6357;DHT22;3211;53.452;-2.264;2024-03-07T04:37:24;6.50;99.90
6357;DHT22;3211;53.452;-2.264;2024-03-07T04:40:13;6.50;99.90
6357;DHT22;3211;53.452;-2.264;2024-03-07T04:43:05;6.50;99.90
6357;DHT22;3211;53.452;-2.264;2024-03-07T04:45:52;6.50;99.90
6357;DHT22;3211;53.452;-2.264;2024-03-07T04:48:39;6.40;99.90
6357;DHT22;3211;53.452;-2.264;2024-03-07T04:51:28;6.40;99.90
6357;DHT22;3211;53.452;-2.264;2024-03-07T04:54:17;6.50;99.90
6357;DHT22;3211;53.452;-2.264;2024-03-07T04:57:04;6.50;99.90
6357;DHT22;3211;53.452;-2.264;2024-03-07T04:59:51;6.50;99.90
6357;DHT22;3211;53.452;-2.264;2024-03-07T05:02:38;6.40;99.90
6357;DHT22;3211;53.452;-2.264;2024-03-07T05:05:26;6.40;99.90
6357;DHT22;3211;53.452;-2.264;2024-03-07T05:08:13;6.40;99.90
6357;DHT22;3211;53.452;-2.264;2024-03-07T05:11:02;6.40;99.90
6357;DHT22;3211;53.452;-2.264;2024-03-07T05:13:50;6.40;99.90
6357;DHT22;3211;53.452;-2.264;2024-03-07T05:16:37;6.50;99.90
6357;DHT22;3211;53.452;-2.264;2024-03-07T05:19:24;6.40;99.90
6357;DHT22;3211;53.452;-2.264;2024-03-07T05:22:14;6.30;99.90
6357;DHT22;3211;53.452;-2.264;2024-03-07T05:25:02;6.30;99.90
6357;DHT22;3211;53.452;-2.264;2024-03-07T05:27:52;6.20;99.90
6357;DHT22;3211;53.452;-2.264;2024-03-07T05:30:40;6.30;99.90
6357;DHT22;3211;53.452;-2.264;2024-03-07T05:33:27;6.30;99.90
6357;DHT22;3211;53.452;-2.264;2024-03-07T05:36:14;6.20;99.90
6357;DHT22;3211;53.452;-2.264;2024-03-07T05:39:02;6.20;99.90
6357;DHT22;3211;53.452;-2.264;2024-03-07T05:41:54;6.20;99.90
6357;DHT22;3211;53.452;-2.264;2024-03-07T05:44:44;6.10;99.90
6357;DHT22;3211;53.452;-2.264;2024-03-07T05:47:32;6.10;99.90
6357;DHT22;3211;53.452;-2.264;2024-03-07T05:50:19;6.10;99.90
6357;DHT22;3211;53.452;-2.264;2024-03-07T05:53:06;6.10;99.90
6357;DHT22;3211;53.452;-2.264;2024-03-07T05:55:53;6.00;99.90
6357;DHT22;3211;53.452;-2.264;2024-03-07T05:58:41;5.90;99.90
6357;DHT22;3211;53.452;-2.264;2024-03-07T06:01:29;5.90;99.90
6357;DHT22;3211;53.452;-2.264;2024-03-07T06:04:18;5.90;99.90
6357;DHT22;3211;53.452;-2.264;2024-03-07T06:07:06;5.90;99.90
6357;DHT22;3211;53.452;-2.264;2024-03-07T06:09:53;5.90;99.90
6357;DHT22;3211;53.452;-2.264;2024-03-07T06:12:40;5.90;99.90
6357;DHT22;3211;53.452;-2.264;2024-03-07T06:15:31;5.80;99.90
6357;DHT22;3211;53.452;-2.264;2024-03-07T06:18:20;5.80;99.90
6357;DHT22;3211;53.452;-2.264;2024-03-07T06:21:07;5.80;99.90
6357;DHT22;3211;53.452;-2.264;2024-03-07T06:23:55;5.80;99.90
6357;DHT22;3211;53.452;-2.264;2024-03-07T06:26:46;5.80;99.90
6357;DHT22;3211;53.452;-2.264;2024-03-07T06:29:35;5.80;99.90
6357;DHT22;3211;53.452;-2.264;2024-03-07T06:32:22;5.90;99.90
6357;DHT22;3211;53.452;-2.264;2024-03-07T06:35:11;5.90;99.90
6357;DHT22;3211;53.452;-2.264;2024-03-07T06:37:58;5.90;99.90
6357;DHT22;3211;53.452;-2.264;2024-03-07T06:40:45;6.00;99.90
6357;DHT22;3211;53.452;-2.264;2024-03-07T06:43:33;5.90;99.90
6357;DHT22;3211;53.452;-2.264;2024-03-07T06:46:20;5.80;99.90
6357;DHT22;3211;53.452;-2.264;2024-03-07T06:49:07;5.80;99.90
6357;DHT22;3211;53.452;-2.264;2024-03-07T06:51:57;5.90;99.90
6357;DHT22;3211;53.452;-2.264;2024-03-07T06:54:44;5.90;99.90
6357;DHT22;3211;53.452;-2.264;2024-03-07T06:57:31;5.90;99.90
6357;DHT22;3211;53.452;-2.264;2024-03-07T07:00:20;5.90;99.90
6357;DHT22;3211;53.452;-2.264;2024-03-07T07:03:07;6.00;99.90
6357;DHT22;3211;53.452;-2.264;2024-03-07T07:05:56;6.00;99.90
6357;DHT22;3211;53.452;-2.264;2024-03-07T07:08:45;6.10;99.90
6357;DHT22;3211;53.452;-2.264;2024-03-07T07:11:32;6.10;99.90
6357;DHT22;3211;53.452;-2.264;2024-03-07T07:14:20;6.10;99.90
6357;DHT22;3211;53.452;-2.264;2024-03-07T07:17:07;6.00;99.90
6357;DHT22;3211;53.452;-2.264;2024-03-07T07:19:55;5.90;99.90
6357;DHT22;3211;53.452;-2.264;2024-03-07T07:22:45;5.90;99.90
6357;DHT22;3211;53.452;-2.264;2024-03-07T07:25:34;5.90;99.90
6357;DHT22;3211;53.452;-2.264;2024-03-07T07:28:21;6.10;99.90
6357;DHT22;3211;53.452;-2.264;2024-03-07T07:31:09;6.10;99.90
6357;DHT22;3211;53.452;-2.264;2024-03-07T07:33:56;6.20;99.90
6357;DHT22;3211;53.452;-2.264;2024-03-07T07:36:43;6.20;99.90
6357;DHT22;3211;53.452;-2.264;2024-03-07T07:39:30;6.20;99.90
6357;DHT22;3211;53.452;-2.264;2024-03-07T07:42:19;6.10;99.90
6357;DHT22;3211;53.452;-2.264;2024-03-07T07:45:07;6.10;99.90
6357;DHT22;3211;53.452;-2.264;2024-03-07T07:47:56;6.30;99.90
6357;DHT22;3211;53.452;-2.264;2024-03-07T07:50:44;6.30;99.90
6357;DHT22;3211;53.452;-2.264;2024-03-07T07:53:31;6.40;99.90
6357;DHT22;3211;53.452;-2.264;2024-03-07T07:56:19;6.40;99.90
6357;DHT22;3211;53.452;-2.264;2024-03-07T07:59:07;6.30;99.90
6357;DHT22;3211;53.452;-2.264;2024-03-07T08:01:55;6.30;99.90
6357;DHT22;3211;53.452;-2.264;2024-03-07T08:04:42;6.30;99.90
6357;DHT22;3211;53.452;-2.264;2024-03-07T08:07:29;6.40;99.90
6357;DHT22;3211;53.452;-2.264;2024-03-07T08:10:17;6.40;99.90
6357;DHT22;3211;53.452;-2.264;2024-03-07T08:13:05;6.40;99.90
6357;DHT22;3211;53.452;-2.264;2024-03-07T08:15:55;6.50;99.90
6357;DHT22;3211;53.452;-2.264;2024-03-07T08:18:43;6.60;99.90
6357;DHT22;3211;53.452;-2.264;2024-03-07T08:21:30;6.60;99.90
6357;DHT22;3211;53.452;-2.264;2024-03-07T08:24:18;6.70;99.90
6357;DHT22;3211;53.452;-2.264;2024-03-07T08:27:05;6.70;99.90
6357;DHT22;3211;53.452;-2.264;2024-03-07T08:29:56;6.80;99.90
6357;DHT22;3211;53.452;-2.264;2024-03-07T08:32:47;6.90;99.90
6357;DHT22;3211;53.452;-2.264;2024-03-07T08:35:35;6.90;99.90
6357;DHT22;3211;53.452;-2.264;2024-03-07T08:38:22;7.00;99.90
6357;DHT22;3211;53.452;-2.264;2024-03-07T08:41:09;7.20;99.90
6357;DHT22;3211;53.452;-2.264;2024-03-07T08:43:57;7.20;99.90
6357;DHT22;3211;53.452;-2.264;2024-03-07T08:46:44;7.20;99.90
6357;DHT22;3211;53.452;-2.264;2024-03-07T08:49:33;7.30;99.90
6357;DHT22;3211;53.452;-2.264;2024-03-07T08:52:20;7.40;99.90
6357;DHT22;3211;53.452;-2.264;2024-03-07T08:55:09;7.50;99.90
6357;DHT22;3211;53.452;-2.264;2024-03-07T08:57:57;7.60;99.90
6357;DHT22;3211;53.452;-2.264;2024-03-07T09:00:44;7.50;99.90
6357;DHT22;3211;53.452;-2.264;2024-03-07T09:03:31;7.50;99.90
6357;DHT22;3211;53.452;-2.264;2024-03-07T09:06:20;7.60;99.90
6357;DHT22;3211;53.452;-2.264;2024-03-07T09:09:08;7.80;99.90
6357;DHT22;3211;53.452;-2.264;2024-03-07T09:11:56;7.80;99.90
6357;DHT22;3211;53.452;-2.264;2024-03-07T09:14:43;7.80;99.90
6357;DHT22;3211;53.452;-2.264;2024-03-07T09:17:30;7.70;99.90
6357;DHT22;3211;53.452;-2.264;2024-03-07T09:20:17;7.90;99.90
6357;DHT22;3211;53.452;-2.264;2024-03-07T09:23:07;8.10;99.90
6357;DHT22;3211;53.452;-2.264;2024-03-07T09:25:54;8.10;99.90
6357;DHT22;3211;53.452;-2.264;2024-03-07T09:28:41;8.20;99.90
6357;DHT22;3211;53.452;-2.264;2024-03-07T09:31:28;8.40;99.90
6357;DHT22;3211;53.452;-2.264;2024-03-07T09:34:17;8.40;99.90
6357;DHT22;3211;53.452;-2.264;2024-03-07T09:37:04;8.50;99.90
6357;DHT22;3211;53.452;-2.264;2024-03-07T09:39:54;8.50;99.90
6357;DHT22;3211;53.452;-2.264;2024-03-07T09:42:43;8.60;99.90
6357;DHT22;3211;53.452;-2.264;2024-03-07T09:45:32;8.90;99.90
6357;DHT22;3211;53.452;-2.264;2024-03-07T09:48:21;9.20;99.90
6357;DHT22;3211;53.452;-2.264;2024-03-07T09:51:12;9.20;99.90
6357;DHT22;3211;53.452;-2.264;2024-03-07T09:54:03;9.20;99.90
6357;DHT22;3211;53.452;-2.264;2024-03-07T09:56:53;9.40;99.90
6357;DHT22;3211;53.452;-2.264;2024-03-07T09:59:42;9.60;99.90
6357;DHT22;3211;53.452;-2.264;2024-03-07T10:02:32;9.70;99.90
6357;DHT22;3211;53.452;-2.264;2024-03-07T10:05:23;9.70;99.90
6357;DHT22;3211;53.452;-2.264;2024-03-07T10:08:13;9.90;99.90
6357;DHT22;3211;53.452;-2.264;2024-03-07T10:11:00;10.00;99.90
6357;DHT22;3211;53.452;-2.264;2024-03-07T10:13:49;10.10;99.90
6357;DHT22;3211;53.452;-2.264;2024-03-07T10:16:37;10.30;99.90
6357;DHT22;3211;53.452;-2.264;2024-03-07T10:19:28;10.50;99.90
6357;DHT22;3211;53.452;-2.264;2024-03-07T10:22:16;10.60;99.90
6357;DHT22;3211;53.452;-2.264;2024-03-07T10:25:05;10.40;99.90
6357;DHT22;3211;53.452;-2.264;2024-03-07T10:27:52;10.50;99.90
6357;DHT22;3211;53.452;-2.264;2024-03-07T10:30:41;10.50;99.90
6357;DHT22;3211;53.452;-2.264;2024-03-07T10:33:30;10.40;99.90
6357;DHT22;3211;53.452;-2.264;2024-03-07T10:36:19;10.50;99.90
6357;DHT22;3211;53.452;-2.264;2024-03-07T10:39:07;10.40;99.90
6357;DHT22;3211;53.452;-2.264;2024-03-07T10:42:01;10.50;99.90
6357;DHT22;3211;53.452;-2.264;2024-03-07T10:44:54;10.30;99.90
6357;DHT22;3211;53.452;-2.264;2024-03-07T10:47:45;10.30;99.90
6357;DHT22;3211;53.452;-2.264;2024-03-07T10:50:43;10.60;99.90
6357;DHT22;3211;53.452;-2.264;2024-03-07T10:53:40;11.00;99.90
6357;DHT22;3211;53.452;-2.264;2024-03-07T10:56:39;11.00;99.90
6357;DHT22;3211;53.452;-2.264;2024-03-07T10:59:30;10.80;99.90
6357;DHT22;3211;53.452;-2.264;2024-03-07T11:02:27;10.90;99.90
6357;DHT22;3211;53.452;-2.264;2024-03-07T11:05:17;10.70;99.90
6357;DHT22;3211;53.452;-2.264;2024-03-07T11:08:05;11.10;99.90
6357;DHT22;3211;53.452;-2.264;2024-03-07T11:10:57;11.30;99.90
6357;DHT22;3211;53.452;-2.264;2024-03-07T11:13:44;11.10;99.90
6357;DHT22;3211;53.452;-2.264;2024-03-07T11:16:33;11.20;99.90
6357;DHT22;3211;53.452;-2.264;2024-03-07T11:19:26;11.60;99.90
6357;DHT22;3211;53.452;-2.264;2024-03-07T11:25:07;11.80;99.90
6357;DHT22;3211;53.452;-2.264;2024-03-07T11:27:57;11.50;99.90
6357;DHT22;3211;53.452;-2.264;2024-03-07T11:30:45;11.60;99.90
6357;DHT22;3211;53.452;-2.264;2024-03-07T11:33:32;11.40;99.90
6357;DHT22;3211;53.452;-2.264;2024-03-07T11:36:43;11.50;99.90
6357;DHT22;3211;53.452;-2.264;2024-03-07T11:39:39;11.60;99.90
6357;DHT22;3211;53.452;-2.264;2024-03-07T11:42:29;11.70;99.90
6357;DHT22;3211;53.452;-2.264;2024-03-07T11:45:19;11.50;99.90
6357;DHT22;3211;53.452;-2.264;2024-03-07T11:48:12;11.50;99.90
6357;DHT22;3211;53.452;-2.264;2024-03-07T11:51:01;11.60;99.90
6357;DHT22;3211;53.452;-2.264;2024-03-07T11:53:49;11.70;99.90
6357;DHT22;3211;53.452;-2.264;2024-03-07T11:56:37;11.70;99.90
6357;DHT22;3211;53.452;-2.264;2024-03-07T11:59:26;11.70;99.90
6357;DHT22;3211;53.452;-2.264;2024-03-07T12:02:18;11.30;99.90
6357;DHT22;3211;53.452;-2.264;2024-03-07T12:05:08;11.10;99.90
6357;DHT22;3211;53.452;-2.264;2024-03-07T12:07:56;10.70;99.90
6357;DHT22;3211;53.452;-2.264;2024-03-07T12:10:44;10.30;99.90
6357;DHT22;3211;53.452;-2.264;2024-03-07T12:13:31;10.80;99.90
6357;DHT22;3211;53.452;-2.264;2024-03-07T12:16:20;10.80;99.90
6357;DHT22;3211;53.452;-2.264;2024-03-07T12:19:11;11.10;99.90
6357;DHT22;3211;53.452;-2.264;2024-03-07T12:22:00;10.90;99.90
6357;DHT22;3211;53.452;-2.264;2024-03-07T12:24:48;10.90;99.90
6357;DHT22;3211;53.452;-2.264;2024-03-07T12:27:35;10.90;99.90
6357;DHT22;3211;53.452;-2.264;2024-03-07T12:30:24;10.90;99.90
6357;DHT22;3211;53.452;-2.264;2024-03-07T12:33:15;10.90;99.90
6357;DHT22;3211;53.452;-2.264;2024-03-07T12:36:03;10.80;99.90
6357;DHT22;3211;53.452;-2.264;2024-03-07T12:38:53;10.60;99.90
6357;DHT22;3211;53.452;-2.264;2024-03-07T12:41:42;10.20;99.90
6357;DHT22;3211;53.452;-2.264;2024-03-07T12:44:40;10.30;99.90
6357;DHT22;3211;53.452;-2.264;2024-03-07T12:47:31;10.00;99.90
6357;DHT22;3211;53.452;-2.264;2024-03-07T12:50:19;9.70;99.90
6357;DHT22;3211;53.452;-2.264;2024-03-07T12:53:07;9.80;99.90
6357;DHT22;3211;53.452;-2.264;2024-03-07T12:55:58;9.90;99.90
6357;DHT22;3211;53.452;-2.264;2024-03-07T12:58:45;10.10;99.90
6357;DHT22;3211;53.452;-2.264;2024-03-07T13:01:32;10.50;99.90
6357;DHT22;3211;53.452;-2.264;2024-03-07T13:04:19;10.70;99.90
6357;DHT22;3211;53.452;-2.264;2024-03-07T13:07:08;10.30;99.90
6357;DHT22;3211;53.452;-2.264;2024-03-07T13:09:56;10.30;99.90
6357;DHT22;3211;53.452;-2.264;2024-03-07T13:12:44;10.30;99.90
6357;DHT22;3211;53.452;-2.264;2024-03-07T13:15:34;10.70;99.90
6357;DHT22;3211;53.452;-2.264;2024-03-07T13:18:23;11.50;99.90
6357;DHT22;3211;53.452;-2.264;2024-03-07T13:21:11;12.30;99.90
6357;DHT22;3211;53.452;-2.264;2024-03-07T13:24:05;12.70;99.90
6357;DHT22;3211;53.452;-2.264;2024-03-07T13:26:52;12.90;99.90
6357;DHT22;3211;53.452;-2.264;2024-03-07T13:29:40;13.30;99.90
6357;DHT22;3211;53.452;-2.264;2024-03-07T13:32:28;13.00;99.90
6357;DHT22;3211;53.452;-2.264;2024-03-07T13:35:15;13.20;99.90
6357;DHT22;3211;53.452;-2.264;2024-03-07T13:38:05;13.10;99.90
6357;DHT22;3211;53.452;-2.264;2024-03-07T13:40:54;13.30;99.90
6357;DHT22;3211;53.452;-2.264;2024-03-07T13:43:43;13.60;99.90
6357;DHT22;3211;53.452;-2.264;2024-03-07T13:46:30;13.20;99.90
6357;DHT22;3211;53.452;-2.264;2024-03-07T13:49:18;12.30;99.90
6357;DHT22;3211;53.452;-2.264;2024-03-07T13:52:08;12.00;99.90
6357;DHT22;3211;53.452;-2.264;2024-03-07T13:55:04;11.70;99.90
6357;DHT22;3211;53.452;-2.264;2024-03-07T13:58:00;11.40;99.90
6357;DHT22;3211;53.452;-2.264;2024-03-07T14:00:55;11.20;99.90
6357;DHT22;3211;53.452;-2.264;2024-03-07T14:07:37;11.30;99.90
6357;DHT22;3211;53.452;-2.264;2024-03-07T14:10:51;11.70;99.90
6357;DHT22;3211;53.452;-2.264;2024-03-07T14:13:59;11.90;99.90
6357;DHT22;3211;53.452;-2.264;2024-03-07T14:17:12;11.70;99.90
6357;DHT22;3211;53.452;-2.264;2024-03-07T14:23:59;11.30;99.90
6357;DHT22;3211;53.452;-2.264;2024-03-07T14:27:18;11.00;99.90
6357;DHT22;3211;53.452;-2.264;2024-03-07T14:30:19;11.20;99.90
6357;DHT22;3211;53.452;-2.264;2024-03-07T14:33:11;11.00;99.90
6357;DHT22;3211;53.452;-2.264;2024-03-07T14:36:01;10.90;99.90
6357;DHT22;3211;53.452;-2.264;2024-03-07T14:38:52;11.00;99.90
6357;DHT22;3211;53.452;-2.264;2024-03-07T14:41:45;10.90;99.90
6357;DHT22;3211;53.452;-2.264;2024-03-07T14:44:34;10.90;99.90
6357;DHT22;3211;53.452;-2.264;2024-03-07T14:47:24;11.00;99.90
6357;DHT22;3211;53.452;-2.264;2024-03-07T14:50:12;10.70;99.90
6357;DHT22;3211;53.452;-2.264;2024-03-07T14:53:02;10.70;99.90
6357;DHT22;3211;53.452;-2.264;2024-03-07T14:55:50;10.60;99.90
6357;DHT22;3211;53.452;-2.264;2024-03-07T14:58:38;10.60;99.90
6357;DHT22;3211;53.452;-2.264;2024-03-07T15:01:25;10.80;99.90
6357;DHT22;3211;53.452;-2.264;2024-03-07T15:04:15;11.30;99.90
6357;DHT22;3211;53.452;-2.264;2024-03-07T15:07:02;11.00;99.90
6357;DHT22;3211;53.452;-2.264;2024-03-07T15:09:49;10.80;99.90
6357;DHT22;3211;53.452;-2.264;2024-03-07T15:12:37;10.70;99.90
6357;DHT22;3211;53.452;-2.264;2024-03-07T15:15:24;10.70;99.90
6357;DHT22;3211;53.452;-2.264;2024-03-07T15:18:14;10.40;99.90
6357;DHT22;3211;53.452;-2.264;2024-03-07T15:21:03;10.30;99.90
6357;DHT22;3211;53.452;-2.264;2024-03-07T15:23:51;10.10;99.90
6357;DHT22;3211;53.452;-2.264;2024-03-07T15:26:38;10.40;99.90
6357;DHT22;3211;53.452;-2.264;2024-03-07T15:29:26;10.60;99.90
6357;DHT22;3211;53.452;-2.264;2024-03-07T15:32:13;10.50;99.90
6357;DHT22;3211;53.452;-2.264;2024-03-07T15:35:03;10.40;99.90
6357;DHT22;3211;53.452;-2.264;2024-03-07T15:37:57;10.20;99.90
6357;DHT22;3211;53.452;-2.264;2024-03-07T15:40:44;10.20;99.90
6357;DHT22;3211;53.452;-2.264;2024-03-07T15:43:31;10.30;99.90
6357;DHT22;3211;53.452;-2.264;2024-03-07T15:46:18;10.20;99.90
6357;DHT22;3211;53.452;-2.264;2024-03-07T15:49:06;10.00;99.90
6357;DHT22;3211;53.452;-2.264;2024-03-07T15:51:54;10.00;99.90
6357;DHT22;3211;53.452;-2.264;2024-03-07T15:54:43;9.90;99.90
6357;DHT22;3211;53.452;-2.264;2024-03-07T15:57:30;10.00;99.90
6357;DHT22;3211;53.452;-2.264;2024-03-07T16:00:18;10.00;99.90
6357;DHT22;3211;53.452;-2.264;2024-03-07T16:03:13;9.90;99.90
6357;DHT22;3211;53.452;-2.264;2024-03-07T16:06:00;9.70;99.90
6357;DHT22;3211;53.452;-2.264;2024-03-07T16:08:48;9.70;99.90
6357;DHT22;3211;53.452;-2.264;2024-03-07T16:11:36;9.70;99.90
6357;DHT22;3211;53.452;-2.264;2024-03-07T16:14:24;9.70;99.90
6357;DHT22;3211;53.452;-2.264;2024-03-07T16:17:11;9.80;99.90
6357;DHT22;3211;53.452;-2.264;2024-03-07T16:20:00;9.80;99.90
6357;DHT22;3211;53.452;-2.264;2024-03-07T16:22:47;9.80;99.90
6357;DHT22;3211;53.452;-2.264;2024-03-07T16:25:36;9.80;99.90
6357;DHT22;3211;53.452;-2.264;2024-03-07T16:28:25;9.70;99.90
6357;DHT22;3211;53.452;-2.264;2024-03-07T16:31:15;9.70;99.90
6357;DHT22;3211;53.452;-2.264;2024-03-07T16:34:02;9.70;99.90
6357;DHT22;3211;53.452;-2.264;2024-03-07T16:36:49;9.60;99.90
6357;DHT22;3211;53.452;-2.264;2024-03-07T16:39:39;9.60;99.90
6357;DHT22;3211;53.452;-2.264;2024-03-07T16:42:29;9.40;99.90
6357;DHT22;3211;53.452;-2.264;2024-03-07T16:45:18;9.40;99.90
6357;DHT22;3211;53.452;-2.264;2024-03-07T16:48:07;9.40;99.90
6357;DHT22;3211;53.452;-2.264;2024-03-07T16:50:55;9.20;99.90
6357;DHT22;3211;53.452;-2.264;2024-03-07T16:53:42;9.20;99.90
6357;DHT22;3211;53.452;-2.264;2024-03-07T16:56:36;9.20;99.90
6357;DHT22;3211;53.452;-2.264;2024-03-07T16:59:23;9.40;99.90
6357;DHT22;3211;53.452;-2.264;2024-03-07T17:02:12;9.40;99.90
6357;DHT22;3211;53.452;-2.264;2024-03-07T17:04:59;9.30;99.90
6357;DHT22;3211;53.452;-2.264;2024-03-07T17:07:47;9.10;99.90
6357;DHT22;3211;53.452;-2.264;2024-03-07T17:10:36;9.30;99.90
6357;DHT22;3211;53.452;-2.264;2024-03-07T17:13:24;9.30;99.90
6357;DHT22;3211;53.452;-2.264;2024-03-07T17:16:12;9.30;99.90
6357;DHT22;3211;53.452;-2.264;2024-03-07T17:19:02;9.30;99.90
6357;DHT22;3211;53.452;-2.264;2024-03-07T17:21:55;9.20;99.90
6357;DHT22;3211;53.452;-2.264;2024-03-07T17:24:43;9.00;99.90
6357;DHT22;3211;53.452;-2.264;2024-03-07T17:27:30;9.10;99.90
6357;DHT22;3211;53.452;-2.264;2024-03-07T17:30:18;9.10;99.90
6357;DHT22;3211;53.452;-2.264;2024-03-07T17:33:06;9.00;99.90
6357;DHT22;3211;53.452;-2.264;2024-03-07T17:35:54;8.80;99.90
6357;DHT22;3211;53.452;-2.264;2024-03-07T17:38:42;8.70;99.90
6357;DHT22;3211;53.452;-2.264;2024-03-07T17:41:32;8.70;99.90
6357;DHT22;3211;53.452;-2.264;2024-03-07T17:44:21;8.90;99.90
6357;DHT22;3211;53.452;-2.264;2024-03-07T17:47:08;8.70;99.90
6357;DHT22;3211;53.452;-2.264;2024-03-07T17:49:56;8.70;99.90
6357;DHT22;3211;53.452;-2.264;2024-03-07T17:52:46;8.70;99.90
6357;DHT22;3211;53.452;-2.264;2024-03-07T17:55:34;8.80;99.90
6357;DHT22;3211;53.452;-2.264;2024-03-07T17:58:21;8.70;99.90
6357;DHT22;3211;53.452;-2.264;2024-03-07T18:01:08;8.70;99.90
6357;DHT22;3211;53.452;-2.264;2024-03-07T18:04:00;8.70;99.90
6357;DHT22;3211;53.452;-2.264;2024-03-07T18:06:52;8.70;99.90
6357;DHT22;3211;53.452;-2.264;2024-03-07T18:09:42;8.70;99.90
6357;DHT22;3211;53.452;-2.264;2024-03-07T18:12:29;8.50;99.90
6357;DHT22;3211;53.452;-2.264;2024-03-07T18:15:18;8.60;99.90
6357;DHT22;3211;53.452;-2.264;2024-03-07T18:18:05;8.50;99.90
6357;DHT22;3211;53.452;-2.264;2024-03-07T18:20:55;8.50;99.90
6357;DHT22;3211;53.452;-2.264;2024-03-07T18:23:43;8.50;99.90
6357;DHT22;3211;53.452;-2.264;2024-03-07T18:26:32;8.50;99.90